Time;durP1;ratioP1;P1;durP2;ratioP2;P2;SDS_P1;SDS_P2;PMS_P1;PMS_P2;Temp;Humidity;BMP_temperature;BMP_pressure;BME280_temperature;BME280_humidity;BME280_pressure;Samples;Min_cycle;Max_cycle;Signal;HPM_P1;HPM_P2
2022/08/10 00:01:18;;;;;;;0.47;0.47;;;;;19.00;96714.00;;;;5113462;28;20198;-57
2022/08/10 00:03:46;;;;;;;1.40;1.30;;;;;18.90;96716.00;;;;5114173;28;20680;-57
2022/08/10 00:06:14;;;;;;;0.30;0.30;;;;;18.80;96718.00;;;;5114184;28;20253;-56
2022/08/10 00:08:42;;;;;;;0.60;0.60;;;;;18.70;96712.00;;;;5113780;28;20196;-54
2022/08/10 00:11:11;;;;;;;0.40;0.40;;;;;18.70;96719.00;;;;5095894;28;20281;-57
2022/08/10 00:13:38;;;;;;;0.60;0.60;;;;;18.70;96713.00;;;;5113821;28;20190;-58
2022/08/10 00:16:05;;;;;;;0.50;0.50;;;;;18.70;96716.00;;;;5114518;28;20229;-56
2022/08/10 00:18:32;;;;;;;0.60;0.60;;;;;18.70;96706.00;;;;5114037;28;20633;-57
2022/08/10 00:21:00;;;;;;;0.90;0.90;;;;;18.60;96710.00;;;;5113678;28;20291;-57
2022/08/10 00:23:26;;;;;;;0.60;0.60;;;;;18.70;96701.00;;;;5114014;28;20605;-57
2022/08/10 00:25:53;;;;;;;0.40;0.40;;;;;18.70;96703.00;;;;5113950;28;20228;-57
2022/08/10 00:28:20;;;;;;;1.00;1.00;;;;;18.70;96710.00;;;;5095662;28;20221;-57
2022/08/10 00:30:47;;;;;;;0.70;0.70;;;;;18.60;96707.00;;;;5095652;28;20194;-56
2022/08/10 00:33:14;;;;;;;0.93;0.93;;;;;18.60;96705.00;;;;5113487;28;20220;-57
2022/08/10 00:35:40;;;;;;;0.80;0.80;;;;;18.60;96705.00;;;;5113590;28;20647;-56
2022/08/10 00:38:10;;;;;;;1.13;1.03;;;;;18.50;96701.00;;;;5095585;28;20601;-58
2022/08/10 00:40:37;;;;;;;0.70;0.70;;;;;18.60;96699.00;;;;5113552;28;20202;-56
2022/08/10 00:43:04;;;;;;;0.60;0.60;;;;;18.70;96704.00;;;;5113622;28;20201;-57
2022/08/10 00:45:33;;;;;;;0.70;0.70;;;;;18.50;96701.00;;;;5113425;28;20674;-57
2022/08/10 00:48:00;;;;;;;0.43;0.43;;;;;18.50;96701.00;;;;5113367;28;20200;-57
2022/08/10 00:50:27;;;;;;;0.77;0.77;;;;;18.50;96696.00;;;;5113372;28;20671;-58
2022/08/10 00:52:56;;;;;;;0.60;0.60;;;;;18.50;96702.00;;;;5113587;28;20529;-58
2022/08/10 00:55:27;;;;;;;0.77;0.77;;;;;18.50;96702.00;;;;5113375;28;20233;-57
2022/08/10 00:57:54;;;;;;;0.63;0.60;;;;;18.40;96697.00;;;;5113728;28;20202;-62
2022/08/10 01:00:21;;;;;;;0.77;0.77;;;;;18.20;96696.00;;;;5113443;28;20244;-60
2022/08/10 01:02:51;;;;;;;0.30;0.30;;;;;18.00;96698.00;;;;5113481;28;20186;-62
2022/08/10 01:05:19;;;;;;;0.50;0.50;;;;;17.90;96696.00;;;;5113333;28;20667;-58
2022/08/10 01:08:15;;;;;;;1.27;1.17;;;;;17.80;96699.00;;;;5113134;28;20247;-58
2022/08/10 01:10:51;;;;;;;1.13;1.13;;;;;17.80;96699.00;;;;5113085;28;20247;-57
2022/08/10 01:13:31;;;;;;;0.97;0.97;;;;;17.80;96695.00;;;;5116658;28;20329;-60
2022/08/10 01:16:04;;;;;;;0.60;0.60;;;;;17.70;96700.00;;;;5098663;28;20290;-57
2022/08/10 01:18:42;;;;;;;0.67;0.67;;;;;17.80;96695.00;;;;5116511;28;20213;-60
2022/08/10 01:21:24;;;;;;;0.50;0.50;;;;;17.80;96689.00;;;;5116563;28;20217;-58
2022/08/10 01:24:18;;;;;;;0.70;0.70;;;;;17.70;96692.00;;;;5116476;28;20214;-58
2022/08/10 01:27:03;;;;;;;0.83;0.83;;;;;17.60;96701.00;;;;5112143;28;20233;-58
2022/08/10 01:29:47;;;;;;;0.50;0.50;;;;;17.50;96703.00;;;;5116372;28;20252;-57
2022/08/10 01:32:25;;;;;;;0.50;0.50;;;;;17.40;96701.00;;;;5116697;28;20221;-54
2022/08/10 01:34:58;;;;;;;0.60;0.60;;;;;17.40;96698.00;;;;5116216;28;20242;-58
2022/08/10 01:37:32;;;;;;;0.70;0.70;;;;;17.50;96708.00;;;;5116301;28;20205;-57
2022/08/10 01:40:03;;;;;;;0.90;0.90;;;;;17.50;96701.00;;;;5116264;28;20221;-57
2022/08/10 01:42:33;;;;;;;0.50;0.50;;;;;17.40;96698.00;;;;5116198;28;20221;-57
2022/08/10 01:45:04;;;;;;;1.83;1.70;;;;;17.20;96698.00;;;;5116011;28;20198;-57
2022/08/10 01:50:28;;;;;;;0.63;0.63;;;;;17.20;96701.00;;;;5116150;28;20232;-56
2022/08/10 01:53:01;;;;;;;0.50;0.50;;;;;17.30;96699.00;;;;5115966;28;20224;-57
2022/08/10 01:55:29;;;;;;;1.27;1.27;;;;;17.30;96702.00;;;;5116098;28;20205;-56
2022/08/10 01:57:59;;;;;;;0.60;0.60;;;;;17.40;96698.00;;;;5115822;28;20194;-55
2022/08/10 02:00:28;;;;;;;0.57;0.57;;;;;17.30;96699.00;;;;5115860;28;20190;-56
2022/08/10 02:02:57;;;;;;;0.80;0.80;;;;;17.30;96701.00;;;;5115731;28;20649;-57
2022/08/10 02:05:26;;;;;;;0.50;0.50;;;;;17.30;96700.00;;;;5115741;28;20193;-57
2022/08/10 02:07:56;;;;;;;1.00;1.00;;;;;17.30;96698.00;;;;5097353;28;20234;-56
2022/08/10 02:10:25;;;;;;;0.50;0.50;;;;;17.30;96692.00;;;;5115899;28;20268;-56
2022/08/10 02:12:55;;;;;;;0.70;0.70;;;;;17.20;96692.00;;;;5115671;28;20190;-56
2022/08/10 02:15:27;;;;;;;0.63;0.63;;;;;17.20;96693.00;;;;5115547;28;20656;-54
2022/08/10 02:17:58;;;;;;;0.77;0.70;;;;;17.10;96692.00;;;;5115547;28;20217;-55
2022/08/10 02:20:27;;;;;;;0.87;0.87;;;;;17.00;96696.00;;;;5115423;28;20294;-57
2022/08/10 02:22:59;;;;;;;1.93;1.07;;;;;16.80;96688.00;;;;5096764;28;20491;-57
2022/08/10 02:25:28;;;;;;;0.70;0.70;;;;;17.00;96693.00;;;;5115258;28;20228;-56
2022/08/10 02:27:58;;;;;;;0.80;0.80;;;;;16.90;96687.00;;;;5115284;28;20253;-56
2022/08/10 02:30:27;;;;;;;0.80;0.80;;;;;16.90;96691.00;;;;5115209;28;20274;-56
2022/08/10 02:32:58;;;;;;;0.97;0.97;;;;;16.90;96688.00;;;;5115382;28;20223;-57
2022/08/10 02:35:26;;;;;;;0.57;0.57;;;;;16.80;96690.00;;;;5115287;28;20224;-57
2022/08/10 02:38:00;;;;;;;0.60;0.60;;;;;16.90;96690.00;;;;5097423;28;20205;-58
2022/08/10 02:40:29;;;;;;;0.90;0.90;;;;;16.90;96685.00;;;;5097299;28;20220;-56
2022/08/10 02:43:02;;;;;;;0.63;0.63;;;;;16.70;96684.00;;;;5114877;28;20209;-55
2022/08/10 02:45:37;;;;;;;0.70;0.70;;;;;16.60;96696.00;;;;5115293;28;20186;-56
2022/08/10 02:48:09;;;;;;;0.60;0.60;;;;;16.60;96692.00;;;;5115079;28;20333;-55
2022/08/10 02:50:42;;;;;;;0.60;0.60;;;;;16.60;96686.00;;;;5115063;28;20235;-56
2022/08/10 02:53:16;;;;;;;0.90;0.90;;;;;16.60;96689.00;;;;5114930;28;20233;-56
2022/08/10 02:55:47;;;;;;;0.60;0.60;;;;;16.40;96690.00;;;;5114988;28;20262;-56
2022/08/10 02:58:17;;;;;;;0.70;0.70;;;;;16.40;96687.00;;;;5114887;28;20226;-58
2022/08/10 03:00:48;;;;;;;0.53;0.53;;;;;16.30;96692.00;;;;5114842;28;20217;-56
2022/08/10 03:03:19;;;;;;;0.60;0.60;;;;;16.20;96686.00;;;;5114775;28;20232;-57
2022/08/10 03:05:49;;;;;;;0.80;0.80;;;;;16.30;96684.00;;;;5096724;28;20198;-56
2022/08/10 03:08:20;;;;;;;0.73;0.73;;;;;16.30;96689.00;;;;5114829;28;20191;-56
2022/08/10 03:10:50;;;;;;;0.50;0.50;;;;;16.30;96688.00;;;;5096858;28;20200;-58
2022/08/10 03:13:18;;;;;;;0.40;0.40;;;;;16.10;96696.00;;;;5114534;28;20198;-56
2022/08/10 03:15:50;;;;;;;0.60;0.60;;;;;16.20;96701.00;;;;5096510;28;20229;-56
2022/08/10 03:18:19;;;;;;;0.53;0.53;;;;;16.30;96687.00;;;;5096670;28;20315;-56
2022/08/10 03:20:47;;;;;;;0.60;0.60;;;;;16.20;96699.00;;;;5114530;28;20632;-57
2022/08/10 03:23:16;;;;;;;0.60;0.60;;;;;16.20;96696.00;;;;5114505;28;20186;-57
2022/08/10 03:25:45;;;;;;;0.50;0.50;;;;;16.10;96689.00;;;;5114508;28;20205;-56
2022/08/10 03:28:15;;;;;;;0.77;0.77;;;;;16.00;96693.00;;;;5114482;28;20702;-57
2022/08/10 03:30:43;;;;;;;0.70;0.70;;;;;16.00;96692.00;;;;5114515;28;20218;-56
2022/08/10 03:33:12;;;;;;;0.60;0.60;;;;;16.10;96691.00;;;;5114329;28;20280;-55
2022/08/10 03:35:39;;;;;;;0.60;0.60;;;;;16.10;96687.00;;;;5114415;28;20269;-56
2022/08/10 03:38:06;;;;;;;0.70;0.70;;;;;16.10;96696.00;;;;5114371;28;20212;-56
2022/08/10 03:40:36;;;;;;;0.97;0.97;;;;;16.10;96698.00;;;;5096359;28;20274;-56
2022/08/10 03:43:05;;;;;;;0.60;0.60;;;;;16.00;96694.00;;;;5114230;28;20280;-56
2022/08/10 03:45:34;;;;;;;0.70;0.70;;;;;16.00;96691.00;;;;5114128;28;20209;-55
2022/08/10 03:48:03;;;;;;;0.70;0.70;;;;;15.90;96693.00;;;;5114117;28;20508;-55
2022/08/10 03:50:31;;;;;;;1.07;1.07;;;;;15.80;96691.00;;;;5114128;28;20214;-57
2022/08/10 03:53:01;;;;;;;1.10;1.00;;;;;15.70;96689.00;;;;5114138;28;20608;-56
2022/08/10 03:55:31;;;;;;;0.50;0.50;;;;;15.60;96695.00;;;;5114002;28;20217;-58
2022/08/10 03:57:58;;;;;;;0.70;0.70;;;;;15.50;96700.00;;;;5096320;28;20262;-57
2022/08/10 04:00:27;;;;;;;0.77;0.77;;;;;15.70;96696.00;;;;5113959;28;20216;-56
2022/08/10 04:02:56;;;;;;;0.60;0.60;;;;;15.60;96694.00;;;;5113986;28;20213;-56
2022/08/10 04:05:23;;;;;;;0.80;0.80;;;;;15.60;96695.00;;;;5096332;28;20229;-58
2022/08/10 04:07:54;;;;;;;0.60;0.60;;;;;15.50;96704.00;;;;5095752;28;20221;-57
2022/08/10 04:10:21;;;;;;;1.80;1.60;;;;;15.40;96701.00;;;;5113719;28;20354;-56
2022/08/10 04:12:48;;;;;;;0.80;0.80;;;;;15.40;96701.00;;;;5113775;28;20319;-56
2022/08/10 04:15:17;;;;;;;0.57;0.57;;;;;15.40;96704.00;;;;5113904;28;20210;-56
2022/08/10 04:17:44;;;;;;;0.70;0.70;;;;;15.50;96708.00;;;;5113731;28;20211;-56
2022/08/10 04:20:17;;;;;;;0.83;0.83;;;;;15.50;96709.00;;;;5113573;28;20272;-56
2022/08/10 04:22:49;;;;;;;1.00;1.00;;;;;15.50;96714.00;;;;5113705;28;20193;-56
2022/08/10 04:25:17;;;;;;;0.60;0.60;;;;;15.70;96708.00;;;;5113422;28;20218;-56
2022/08/10 04:27:44;;;;;;;0.77;0.77;;;;;15.90;96713.00;;;;5095607;28;20267;-58
2022/08/10 04:30:11;;;;;;;0.67;0.67;;;;;16.00;96710.00;;;;5113540;28;20228;-57
2022/08/10 04:32:40;;;;;;;0.90;0.90;;;;;16.10;96706.00;;;;5113604;28;20665;-57
2022/08/10 04:35:09;;;;;;;0.50;0.50;;;;;16.10;96701.00;;;;5113399;28;20230;-57
2022/08/10 04:37:38;;;;;;;1.33;1.03;;;;;16.10;96704.00;;;;5113417;28;20205;-57
2022/08/10 04:40:06;;;;;;;0.87;0.87;;;;;16.00;96708.00;;;;5113241;28;20228;-58
2022/08/10 04:42:34;;;;;;;0.60;0.60;;;;;16.00;96706.00;;;;5113743;28;20255;-59
2022/08/10 04:45:07;;;;;;;1.23;1.13;;;;;16.00;96706.00;;;;5113267;28;20201;-57
2022/08/10 04:47:33;;;;;;;0.90;0.90;;;;;16.10;96714.00;;;;5115895;28;20222;-57
2022/08/10 04:50:03;;;;;;;0.90;0.90;;;;;16.10;96713.00;;;;5116820;28;20194;-57
2022/08/10 04:52:29;;;;;;;0.90;0.90;;;;;16.20;96713.00;;;;5116990;28;20232;-57
2022/08/10 04:54:57;;;;;;;0.97;0.97;;;;;16.30;96713.00;;;;5098748;28;20240;-57
2022/08/10 04:57:24;;;;;;;0.73;0.73;;;;;16.30;96712.00;;;;5116896;28;20197;-57
2022/08/10 04:59:51;;;;;;;0.60;0.60;;;;;16.30;96714.00;;;;5116809;28;20217;-57
2022/08/10 05:02:20;;;;;;;1.33;1.23;;;;;16.30;96712.00;;;;5116759;28;20225;-57
2022/08/10 05:04:47;;;;;;;1.10;1.10;;;;;16.20;96712.00;;;;5116813;28;20182;-57
2022/08/10 05:07:15;;;;;;;0.63;0.63;;;;;16.10;96706.00;;;;5099084;28;20221;-58
2022/08/10 05:09:45;;;;;;;1.17;1.17;;;;;16.20;96712.00;;;;5116959;28;20220;-57
2022/08/10 05:12:12;;;;;;;3.20;1.30;;;;;16.20;96719.00;;;;5116650;28;20182;-60
2022/08/10 05:14:39;;;;;;;0.90;0.90;;;;;16.30;96717.00;;;;5116575;28;20368;-57
2022/08/10 05:17:09;;;;;;;0.53;0.53;;;;;16.50;96714.00;;;;5116456;28;20198;-58
2022/08/10 05:19:38;;;;;;;0.80;0.80;;;;;16.60;96717.00;;;;5116499;28;20190;-58
2022/08/10 05:22:07;;;;;;;0.60;0.60;;;;;16.70;96722.00;;;;5098476;28;20206;-58
2022/08/10 05:24:34;;;;;;;0.70;0.70;;;;;16.80;96718.00;;;;5116439;28;20671;-58
2022/08/10 05:27:15;;;;;;;0.70;0.70;;;;;16.90;96715.00;;;;5116436;28;20226;-58
2022/08/10 05:29:41;;;;;;;0.67;0.67;;;;;17.00;96717.00;;;;5116430;28;20186;-58
2022/08/10 05:32:09;;;;;;;0.60;0.60;;;;;17.10;96723.00;;;;5116215;28;20541;-58
2022/08/10 05:34:36;;;;;;;0.60;0.60;;;;;17.10;96723.00;;;;5098419;28;20581;-58
2022/08/10 05:37:04;;;;;;;1.13;1.07;;;;;17.10;96723.00;;;;5098303;28;20552;-58
2022/08/10 05:39:35;;;;;;;0.63;0.63;;;;;17.20;96717.00;;;;5116431;28;20212;-58
2022/08/10 05:42:03;;;;;;;0.90;0.90;;;;;17.30;96722.00;;;;5116119;28;20222;-57
2022/08/10 05:44:30;;;;;;;0.90;0.90;;;;;17.30;96723.00;;;;5116250;28;20205;-57
2022/08/10 05:46:57;;;;;;;0.87;0.87;;;;;17.40;96717.00;;;;5116063;28;20249;-61
2022/08/10 05:49:24;;;;;;;2.30;2.10;;;;;17.50;96722.00;;;;5116207;28;20238;-60
2022/08/10 05:51:52;;;;;;;0.70;0.70;;;;;17.60;96724.00;;;;5115933;28;20236;-57
2022/08/10 05:54:19;;;;;;;1.07;1.07;;;;;17.70;96723.00;;;;5116144;28;20186;-59
2022/08/10 05:56:48;;;;;;;0.50;0.50;;;;;17.80;96727.00;;;;5115942;28;20301;-57
2022/08/10 05:59:16;;;;;;;0.87;0.87;;;;;17.80;96720.00;;;;5114650;28;20198;-55
2022/08/10 06:01:47;;;;;;;0.97;0.97;;;;;17.80;96719.00;;;;5097736;28;20637;-57
2022/08/10 06:04:23;;;;;;;0.50;0.50;;;;;17.90;96725.00;;;;5115910;28;20209;-57
2022/08/10 06:06:52;;;;;;;0.57;0.57;;;;;17.90;96723.00;;;;5097718;28;20229;-57
2022/08/10 06:09:20;;;;;;;1.73;1.63;;;;;18.00;96731.00;;;;5115815;28;20277;-58
2022/08/10 06:11:50;;;;;;;0.60;0.60;;;;;17.90;96723.00;;;;5098052;28;20252;-57
2022/08/10 06:17:04;;;;;;;0.60;0.60;;;;;17.80;96730.00;;;;5115950;28;20220;-57
2022/08/10 06:19:33;;;;;;;0.43;0.43;;;;;18.00;96734.00;;;;5115817;28;20277;-57
2022/08/10 06:22:02;;;;;;;0.67;0.67;;;;;18.10;96731.00;;;;5115683;28;20249;-57
2022/08/10 06:24:30;;;;;;;0.77;0.77;;;;;18.20;96723.00;;;;5115695;28;20260;-57
2022/08/10 06:26:59;;;;;;;0.60;0.60;;;;;18.30;96729.00;;;;5097534;28;20225;-57
2022/08/10 06:29:31;;;;;;;0.60;0.60;;;;;18.20;96724.00;;;;5097579;28;20236;-57
2022/08/10 06:31:59;;;;;;;0.80;0.80;;;;;18.40;96723.00;;;;5115380;28;20290;-56
2022/08/10 06:34:29;;;;;;;15.73;1.00;;;;;18.50;96726.00;;;;5115327;28;20205;-57
2022/08/10 06:36:59;;;;;;;1.13;0.97;;;;;18.70;96718.00;;;;5115270;28;20196;-57
2022/08/10 06:39:27;;;;;;;22.07;1.47;;;;;18.60;96729.00;;;;5115392;28;20185;-63
2022/08/10 06:42:00;;;;;;;1.00;1.00;;;;;18.80;96727.00;;;;5115208;28;20273;-55
2022/08/10 06:44:34;;;;;;;0.70;0.70;;;;;19.00;96718.00;;;;5097492;28;20225;-55
2022/08/10 06:47:02;;;;;;;0.70;0.70;;;;;19.20;96722.00;;;;5115251;28;20296;-56
2022/08/10 06:49:31;;;;;;;0.60;0.60;;;;;19.10;96718.00;;;;5115356;28;20245;-58
2022/08/10 06:52:02;;;;;;;0.50;0.50;;;;;19.20;96716.00;;;;5115482;28;20194;-57
2022/08/10 06:54:31;;;;;;;1.10;1.10;;;;;19.30;96707.00;;;;5115420;28;20205;-58
2022/08/10 06:56:59;;;;;;;0.63;0.63;;;;;19.50;96713.00;;;;5115283;28;20296;-58
2022/08/10 06:59:31;;;;;;;0.70;0.70;;;;;19.40;96714.00;;;;5115051;28;20277;-56
2022/08/10 07:02:04;;;;;;;0.47;0.47;;;;;19.60;96712.00;;;;5115241;28;20250;-55
2022/08/10 07:04:34;;;;;;;0.70;0.70;;;;;19.70;96717.00;;;;5114971;28;20194;-58
2022/08/10 07:07:05;;;;;;;0.60;0.60;;;;;20.00;96716.00;;;;5114884;28;20268;-58
2022/08/10 07:09:38;;;;;;;0.60;0.60;;;;;20.30;96720.00;;;;5096427;28;20209;-54
2022/08/10 07:12:07;;;;;;;0.93;0.87;;;;;20.50;96716.00;;;;5114842;28;20241;-56
2022/08/10 07:14:37;;;;;;;0.50;0.50;;;;;20.60;96720.00;;;;5114706;28;20225;-56
2022/08/10 07:17:06;;;;;;;1.17;1.10;;;;;20.90;96727.00;;;;5114712;28;20189;-56
2022/08/10 07:19:33;;;;;;;0.57;0.57;;;;;21.00;96719.00;;;;5114787;28;20250;-56
2022/08/10 07:22:02;;;;;;;0.70;0.70;;;;;21.00;96719.00;;;;5114544;28;20193;-57
2022/08/10 07:24:31;;;;;;;1.63;1.48;;;;;21.10;96714.00;;;;5114480;28;20294;-57
2022/08/10 07:27:00;;;;;;;0.43;0.43;;;;;21.30;96708.00;;;;5114586;28;20217;-54
2022/08/10 07:29:30;;;;;;;0.50;0.50;;;;;21.50;96706.00;;;;5114409;28;20555;-56
2022/08/10 07:31:58;;;;;;;0.60;0.60;;;;;21.50;96711.00;;;;5114695;28;20217;-56
2022/08/10 07:34:27;;;;;;;0.60;0.60;;;;;21.70;96708.00;;;;5114490;28;20259;-56
2022/08/10 07:36:59;;;;;;;0.50;0.50;;;;;21.80;96709.00;;;;5114543;28;20212;-57
2022/08/10 07:39:29;;;;;;;0.85;0.85;;;;;21.90;96712.00;;;;5114486;28;20285;-57
2022/08/10 07:41:57;;;;;;;0.52;0.52;;;;;22.10;96712.00;;;;5114258;28;20214;-57
2022/08/10 07:44:27;;;;;;;0.63;0.63;;;;;22.20;96710.00;;;;5096196;28;20198;-55
2022/08/10 07:46:59;;;;;;;0.52;0.52;;;;;22.30;96716.00;;;;5114011;28;20535;-55
2022/08/10 07:49:30;;;;;;;0.68;0.68;;;;;22.20;96719.00;;;;5114210;28;20209;-54
2022/08/10 07:51:58;;;;;;;0.45;0.45;;;;;22.20;96721.00;;;;5114144;28;20312;-55
2022/08/10 07:54:28;;;;;;;0.40;0.40;;;;;22.30;96715.00;;;;5114218;28;20276;-58
2022/08/10 07:57:02;;;;;;;0.60;0.60;;;;;22.40;96711.00;;;;5114163;28;20285;-55
2022/08/10 07:59:35;;;;;;;0.70;0.70;;;;;22.40;96716.00;;;;5114227;28;20197;-55
2022/08/10 08:02:07;;;;;;;1.45;0.77;;;;;22.30;96709.00;;;;5114047;28;20197;-57
2022/08/10 08:04:35;;;;;;;0.50;0.50;;;;;22.40;96711.00;;;;5113916;28;20221;-56
2022/08/10 08:07:07;;;;;;;0.68;0.68;;;;;22.50;96719.00;;;;5095876;28;20221;-56
2022/08/10 08:09:37;;;;;;;0.63;0.63;;;;;22.60;96726.00;;;;5113959;28;20641;-56
2022/08/10 08:12:07;;;;;;;0.40;0.40;;;;;22.60;96715.00;;;;5113964;28;20198;-56
2022/08/10 08:14:38;;;;;;;0.50;0.50;;;;;22.80;96713.00;;;;5113876;28;20255;-56
2022/08/10 08:17:09;;;;;;;0.40;0.40;;;;;23.00;96724.00;;;;5113973;28;20209;-56
2022/08/10 08:19:37;;;;;;;0.40;0.40;;;;;22.90;96728.00;;;;5095911;28;20193;-56
2022/08/10 08:22:06;;;;;;;0.63;0.63;;;23.50;29.40;22.80;96728.00;;;;5112869;28;20252;-56
2022/08/10 08:24:36;;;;;;;0.30;0.30;;;23.30;29.90;23.00;96728.00;;;;5113815;28;20218;-57
2022/08/10 08:27:07;;;;;;;0.68;0.68;;;23.40;30.00;23.30;96720.00;;;;5113742;28;20309;-58
2022/08/10 08:29:38;;;;;;;0.50;0.50;;;;;23.20;96722.00;;;;5113848;28;20664;-57
2022/08/10 08:32:06;;;;;;;0.70;0.70;;;;;23.10;96717.00;;;;5095767;28;20300;-56
2022/08/10 08:34:37;;;;;;;0.43;0.43;;;23.50;75.10;23.10;96716.00;;;;5095784;28;20243;-56
2022/08/10 08:37:06;;;;;;;0.40;0.40;;;;;23.30;96727.00;;;;5113676;28;20214;-56
2022/08/10 08:39:35;;;;;;;0.50;0.50;;;;;23.40;96713.00;;;;5113570;28;20251;-56
2022/08/10 08:42:27;;;;;;;0.50;0.50;;;;;23.60;96730.00;;;;5113634;28;20194;-56
2022/08/10 08:45:05;;;;;;;0.40;0.40;;;;;23.80;96715.00;;;;5105346;28;20229;-60
2022/08/10 08:47:58;;;;;;;0.40;0.40;;;24.20;26.40;23.70;96724.00;;;;5113344;28;20209;-55
2022/08/10 08:50:44;;;;;;;0.68;0.68;;;24.20;26.50;24.00;96718.00;;;;5113418;28;20354;-56
2022/08/10 08:53:27;;;;;;;0.43;0.43;;;;;23.90;96722.00;;;;5113439;28;20236;-56
2022/08/10 08:56:03;;;;;;;0.40;0.40;;;24.30;26.00;23.80;96722.00;;;;5113286;28;20286;-56
2022/08/10 08:58:48;;;;;;;0.40;0.40;;;24.30;26.60;24.10;96716.00;;;;5113451;28;20229;-56
2022/08/10 09:01:43;;;;;;;0.50;0.50;;;24.30;27.20;24.30;96721.00;;;;5113237;28;20230;-56
2022/08/10 09:04:32;;;;;;;1.02;1.02;;;24.60;26.00;24.00;96711.00;;;;5113312;28;20222;-55
2022/08/10 09:07:34;;;;;;;0.40;0.40;;;24.40;26.40;24.00;96711.00;;;;5113131;28;20676;-55
2022/08/10 09:10:12;;;;;;;0.47;0.47;;;24.40;26.00;24.10;96711.00;;;;5095080;28;20708;-55
2022/08/10 09:12:50;;;;;;;0.50;0.50;;;24.40;25.80;24.20;96717.00;;;;5113000;28;20228;-54
2022/08/10 09:15:29;;;;;;;0.45;0.45;;;24.60;25.90;24.10;96707.00;;;;5113235;28;20266;-55
2022/08/10 09:18:12;;;;;;;0.90;0.90;;;24.40;26.50;24.30;96717.00;;;;5112979;28;20721;-55
2022/08/10 09:20:50;;;;;;;0.50;0.50;;;24.80;42.60;24.10;96707.00;;;;5113029;28;20209;-55
2022/08/10 09:23:28;;;;;;;0.80;0.80;;;24.60;24.80;24.50;96697.00;;;;5113033;28;20215;-55
2022/08/10 09:26:02;;;;;;;0.40;0.40;;;24.80;25.20;24.50;96693.00;;;;5113057;28;20205;-55
2022/08/10 09:28:37;;;;;;;0.40;0.40;;;24.80;24.10;24.70;96700.00;;;;5112920;28;20221;-55
2022/08/10 09:31:07;;;;;;;0.50;0.50;;;;;24.90;96701.00;;;;5094792;28;20578;-55
2022/08/10 09:33:48;;;;;;;0.47;0.47;;;25.30;21.00;25.10;96673.00;;;;5115288;28;20285;-55
2022/08/10 09:36:26;;;;;;;0.50;0.50;;;;;25.10;96694.00;;;;5116314;28;20308;-54
2022/08/10 09:39:10;;;;;;;0.52;0.52;;;25.50;20.50;24.80;96701.00;;;;5116220;28;20197;-54
2022/08/10 09:41:48;;;;;;;0.63;0.63;;;;;25.00;96701.00;;;;5116043;28;20234;-54
2022/08/10 09:44:27;;;;;;;0.50;0.50;;;;;24.90;96707.00;;;;5116155;28;20198;-54
2022/08/10 09:47:17;;;;;;;0.50;0.50;;;25.30;20.40;24.90;96704.00;;;;5116063;28;20313;-54
2022/08/10 09:49:58;;;;;;;1.08;1.08;;;;;24.80;96698.00;;;;5116187;28;20228;-54
2022/08/10 09:52:36;;;;;;;0.70;0.70;;;25.30;20.60;25.10;96696.00;;;;5116075;28;20198;-54
2022/08/10 09:55:16;;;;;;;0.50;0.50;;;25.40;21.00;25.10;96684.00;;;;5116057;28;20273;-54
2022/08/10 09:57:55;;;;;;;0.65;0.65;;;;;25.10;96696.00;;;;5116045;28;20320;-54
2022/08/10 10:00:33;;;;;;;0.70;0.70;;;25.50;21.00;25.30;96706.00;;;;5115984;28;20205;-54
2022/08/10 10:03:15;;;;;;;0.60;0.60;;;25.50;21.50;25.60;96683.00;;;;5116041;28;20196;-54
2022/08/10 10:05:53;;;;;;;0.52;0.52;;;25.80;21.40;25.70;96695.00;;;;5115814;28;20676;-56
2022/08/10 10:08:31;;;;;;;0.40;0.40;;;26.00;21.70;25.70;96685.00;;;;5115722;28;20228;-55
2022/08/10 10:11:11;;;;;;;0.80;0.80;;;26.10;21.40;25.60;96679.00;;;;5115899;28;20240;-55
2022/08/10 10:13:59;;;;;;;1.35;1.25;;;26.00;22.50;26.00;96685.00;;;;5115871;28;20284;-55
2022/08/10 10:16:45;;;;;;;0.85;0.85;;;26.30;21.90;26.00;96680.00;;;;5097770;28;20226;-56
2022/08/10 10:19:44;;;;;;;1.17;1.10;;;26.30;21.60;26.10;96687.00;;;;5115764;28;20224;-55
2022/08/10 10:22:34;;;;;;;0.57;0.57;;;26.40;21.50;26.00;96680.00;;;;5115721;28;20229;-56
2022/08/10 10:25:08;;;;;;;0.50;0.50;;;26.40;21.40;26.10;96682.00;;;;5115578;28;20198;-55
2022/08/10 10:27:46;;;;;;;0.60;0.60;;;26.30;21.00;26.30;96680.00;;;;5115478;28;20225;-55
2022/08/10 10:30:19;;;;;;;0.93;0.93;;;26.60;20.70;26.40;96676.00;;;;5115650;28;20264;-56
2022/08/10 10:33:01;;;;;;;0.60;0.60;;;26.70;20.80;26.70;96674.00;;;;5115486;28;20190;-55
2022/08/10 10:35:37;;;;;;;0.43;0.43;;;26.90;20.00;26.70;96671.00;;;;5115425;28;20233;-55
2022/08/10 10:38:10;;;;;;;0.70;0.70;;;27.00;20.90;26.70;96672.00;;;;5115444;28;20189;-55
2022/08/10 10:40:47;;;;;;;0.47;0.47;;;27.00;20.00;27.10;96676.00;;;;5115353;28;20212;-54
2022/08/10 10:43:43;;;;;;;0.50;0.50;;;27.30;19.00;27.00;96659.00;;;;5115358;28;20244;-55
2022/08/10 10:46:36;;;;;;;0.73;0.73;;;27.30;18.60;27.00;96669.00;;;;5115153;28;20194;-54
2022/08/10 10:49:26;;;;;;;0.60;0.60;;;27.20;19.00;27.10;96659.00;;;;5115148;28;20779;-55
2022/08/10 10:52:09;;;;;;;0.55;0.55;;;27.40;18.70;27.00;96648.00;;;;5115161;28;20242;-55
2022/08/10 10:54:45;;;;;;;0.52;0.52;;;27.30;19.50;27.40;96649.00;;;;5115235;28;20274;-55
2022/08/10 10:57:22;;;;;;;0.50;0.50;;;27.50;18.60;27.70;96648.00;;;;5115159;28;20620;-56
2022/08/10 11:00:03;;;;;;;1.13;1.02;;;27.90;18.40;27.90;96638.00;;;;5115081;28;20209;-56
2022/08/10 11:02:58;;;;;;;0.55;0.55;;;28.10;18.40;27.90;96635.00;;;;5114862;28;20222;-57
2022/08/10 11:05:37;;;;;;;0.47;0.47;;;28.20;16.80;27.90;96632.00;;;;5114869;28;20202;-57
2022/08/10 11:08:11;;;;;;;9.00;1.02;;;28.10;17.00;27.80;96633.00;;;;5096894;28;20235;-57
2022/08/10 11:10:52;;;;;;;0.50;0.50;;;28.10;16.90;27.60;96644.00;;;;5114909;28;20319;-56
2022/08/10 11:13:33;;;;;;;1.65;1.20;;;28.10;17.10;27.60;96638.00;;;;5114779;28;20217;-57
2022/08/10 11:16:08;;;;;;;0.70;0.70;;;28.10;17.80;27.00;96640.00;;;;5114839;28;20225;-57
2022/08/10 11:18:55;;;;;;;0.60;0.60;;;27.50;18.10;27.40;96627.00;;;;5114697;28;20221;-60
2022/08/10 11:21:48;;;;;;;0.70;0.70;;;27.70;17.90;27.70;96636.00;;;;5114732;28;20213;-56
2022/08/10 11:24:26;;;;;;;0.60;0.60;;;27.90;18.10;27.90;96634.00;;;;5114625;28;20562;-59
2022/08/10 11:27:01;;;;;;;0.70;0.70;;;28.10;18.50;28.10;96624.00;;;;5114657;28;20683;-54
2022/08/10 11:29:36;;;;;;;0.50;0.50;;;28.30;17.20;28.10;96621.00;;;;5114602;28;20659;-54
2022/08/10 11:32:11;;;;;;;0.60;0.60;;;28.40;16.90;28.50;96623.00;;;;5096728;28;20300;-53
2022/08/10 11:34:53;;;;;;;0.93;0.93;;;28.60;17.30;28.60;96623.00;;;;5114703;28;20226;-55
2022/08/10 11:37:36;;;;;;;0.50;0.50;;;28.80;16.80;28.60;96626.00;;;;5114582;28;20208;-55
2022/08/10 11:40:14;;;;;;;0.73;0.73;;;28.90;16.40;28.90;96626.00;;;;5114459;28;20772;-55
2022/08/10 11:42:50;;;;;;;0.80;0.80;;;29.10;17.30;29.10;96618.00;;;;5114490;28;20304;-55
2022/08/10 11:45:24;;;;;;;0.50;0.50;;;29.20;16.50;29.00;96627.00;;;;5114349;28;20201;-55
2022/08/10 11:48:01;;;;;;;0.50;0.50;;;29.20;16.50;29.30;96625.00;;;;5114416;28;20217;-60
2022/08/10 11:50:46;;;;;;;0.65;0.65;;;29.40;16.20;29.20;96617.00;;;;5096647;28;20289;-55
2022/08/10 11:53:21;;;;;;;1.85;1.30;;;29.50;16.70;29.20;96619.00;;;;5114171;28;20547;-53
2022/08/10 11:55:55;;;;;;;0.55;0.55;;;29.40;16.30;29.50;96616.00;;;;5113147;28;20222;-55
2022/08/10 12:01:19;;;;;;;0.65;0.65;;;29.40;15.80;28.50;96630.00;;;;5114212;28;20187;-55
2022/08/10 12:03:47;;;;;;;0.60;0.60;;;28.90;16.10;28.90;96601.00;;;;5114200;28;20194;-55
2022/08/10 12:06:18;;;;;;;0.70;0.70;;;29.20;16.30;29.30;96615.00;;;;5114046;28;20509;-54
2022/08/10 12:08:49;;;;;;;0.52;0.52;;;29.30;16.30;29.30;96608.00;;;;5114015;28;20235;-54
2022/08/10 12:11:27;;;;;;;0.60;0.60;;;29.50;16.30;29.60;96619.00;;;;5113889;28;20301;-54
2022/08/10 12:14:03;;;;;;;0.57;0.57;;;29.70;16.10;28.80;96615.00;;;;5114008;28;20210;-55
2022/08/10 12:16:36;;;;;;;0.70;0.70;;;29.20;15.60;29.00;96610.00;;;;5114113;28;20237;-58
2022/08/10 12:19:12;;;;;;;0.63;0.63;;;29.20;15.80;29.10;96606.00;;;;5113928;28;20567;-55
2022/08/10 12:21:46;;;;;;;1.95;1.02;;;29.30;16.10;29.70;96610.00;;;;5114000;28;20558;-60
2022/08/10 12:24:23;;;;;;;0.60;0.60;;;29.70;16.00;29.80;96604.00;;;;5114028;28;20277;-59
2022/08/10 12:26:59;;;;;;;0.50;0.50;;;30.00;14.90;30.10;96609.00;;;;5114092;28;20201;-57